AQQ10 IFIS: Internet Flight Information System
logo dgac
Miércoles 19 de Junio del 2024
Buscar por aerodromo o helipuerto
Ingrese nombre de aeródromo, localidad o designador OACI:
METAR del 19-06-2024 a las 11:00 UTC
Para mayor información visite www.meteochile.gob.cl
METAR SCCI 191100Z 27005KT 9999 FEW040 M10/M12 Q1025 NOSIG
Viento: dirección 270 grados, velocidad 5 nudos
Visibilidad: 10 km o más
Nubes: Escasa nubosidad a 4000 pies sobre el nivel del aeródromo
Temperatura: -10 °C
Rocío: -12 °C
Humedad_relativa: 85%
Presión: 1025 hPa
No se esperan cambios significativos en las próximas 2 horas
METAR del 19-06-2024 a las 10:00 UTC
Para mayor información visite www.meteochile.gob.cl
METAR SCCI 191000Z 12006KT 9999 FEW040 M03/M07 Q1025 NOSIG
Viento: dirección 120 grados, velocidad 6 nudos
Visibilidad: 10 km o más
Nubes: Escasa nubosidad a 4000 pies sobre el nivel del aeródromo
Temperatura: -3 °C
Rocío: -7 °C
Humedad_relativa: 74%
Presión: 1025 hPa
No se esperan cambios significativos en las próximas 2 horas
METAR del 19-06-2024 a las 09:00 UTC
Para mayor información visite www.meteochile.gob.cl
METAR SCCI 190900Z 12008KT 9999 FEW040 M02/M06 Q1024 NOSIG
Viento: dirección 120 grados, velocidad 8 nudos
Visibilidad: 10 km o más
Nubes: Escasa nubosidad a 4000 pies sobre el nivel del aeródromo
Temperatura: -2 °C
Rocío: -6 °C
Humedad_relativa: 74%
Presión: 1024 hPa
No se esperan cambios significativos en las próximas 2 horas
METAR del 19-06-2024 a las 08:00 UTC
Para mayor información visite www.meteochile.gob.cl
METAR SCCI 190800Z 13009KT 9999 FEW040 M02/M06 Q1025 NOSIG
Viento: dirección 130 grados, velocidad 9 nudos
Visibilidad: 10 km o más
Nubes: Escasa nubosidad a 4000 pies sobre el nivel del aeródromo
Temperatura: -2 °C
Rocío: -6 °C
Humedad_relativa: 74%
Presión: 1025 hPa
No se esperan cambios significativos en las próximas 2 horas
METAR del 19-06-2024 a las 07:00 UTC
Para mayor información visite www.meteochile.gob.cl
METAR SCCI 190700Z 12012KT 9999 FEW040 M02/M06 Q1025 NOSIG
Viento: dirección 120 grados, velocidad 12 nudos
Visibilidad: 10 km o más
Nubes: Escasa nubosidad a 4000 pies sobre el nivel del aeródromo
Temperatura: -2 °C
Rocío: -6 °C
Humedad_relativa: 74%
Presión: 1025 hPa
No se esperan cambios significativos en las próximas 2 horas
METAR del 19-06-2024 a las 06:00 UTC
Para mayor información visite www.meteochile.gob.cl
METAR SCCI 190600Z 12012KT 9999 FEW040 M01/M06 Q1024 NOSIG
Viento: dirección 120 grados, velocidad 12 nudos
Visibilidad: 10 km o más
Nubes: Escasa nubosidad a 4000 pies sobre el nivel del aeródromo
Temperatura: -1 °C
Rocío: -6 °C
Humedad_relativa: 69%
Presión: 1024 hPa
No se esperan cambios significativos en las próximas 2 horas
METAR del 19-06-2024 a las 05:00 UTC
Para mayor información visite www.meteochile.gob.cl
METAR SCCI 190500Z 12009KT 9999 FEW020 SCT050 M02/M06 Q1024 NOSIG
Viento: dirección 120 grados, velocidad 9 nudos
Visibilidad: 10 km o más
Nubes: Escasa nubosidad a 2000 pies sobre el nivel del aeródromo
Nubes: Nubosidad parcial a 5000 pies sobre el nivel del aeródromo
Temperatura: -2 °C
Rocío: -6 °C
Humedad_relativa: 74%
Presión: 1024 hPa
No se esperan cambios significativos en las próximas 2 horas
METAR del 19-06-2024 a las 04:00 UTC
Para mayor información visite www.meteochile.gob.cl
METAR SCCI 190400Z 12013KT 9999 FEW020 BKN060 M01/M05 Q1024 NOSIG
Viento: dirección 120 grados, velocidad 13 nudos
Visibilidad: 10 km o más
Nubes: Escasa nubosidad a 2000 pies sobre el nivel del aeródromo
Nubes: Nublado a 6000 pies sobre el nivel del aeródromo
Temperatura: -1 °C
Rocío: -5 °C
Humedad_relativa: 74%
Presión: 1024 hPa
No se esperan cambios significativos en las próximas 2 horas
METAR del 19-06-2024 a las 03:00 UTC
Para mayor información visite www.meteochile.gob.cl
METAR SCCI 190300Z 13010KT 9999 FEW040 BKN070 M01/M06 Q1024 NOSIG
Viento: dirección 130 grados, velocidad 10 nudos
Visibilidad: 10 km o más
Nubes: Escasa nubosidad a 4000 pies sobre el nivel del aeródromo
Nubes: Nublado a 7000 pies sobre el nivel del aeródromo
Temperatura: -1 °C
Rocío: -6 °C
Humedad_relativa: 69%
Presión: 1024 hPa
No se esperan cambios significativos en las próximas 2 horas
METAR del 19-06-2024 a las 02:00 UTC
Para mayor información visite www.meteochile.gob.cl
METAR SCCI 190200Z 13012KT 9999 FEW020 SCT050 BKN070 M00/M06 Q1023 NOSIG
Viento: dirección 130 grados, velocidad 12 nudos
Visibilidad: 10 km o más
Nubes: Escasa nubosidad a 2000 pies sobre el nivel del aeródromo
Nubes: Nubosidad parcial a 5000 pies sobre el nivel del aeródromo
Nubes: Nublado a 7000 pies sobre el nivel del aeródromo
Temperatura: 0 °C
Rocío: -6 °C
Humedad_relativa: 64%
Presión: 1023 hPa
No se esperan cambios significativos en las próximas 2 horas